Time;durP1;ratioP1;P1;durP2;ratioP2;P2;SDS_P1;SDS_P2;PMS_P1;PMS_P2;Temp;Humidity;BMP_temperature;BMP_pressure;BME280_temperature;BME280_humidity;BME280_pressure;Samples;Min_cycle;Max_cycle;Signal;HPM_P1;HPM_P2
2021/04/25 00:01:13;;;;;;;0.75;0.20;;;;;;;20.82;nan;102045.41;5054835;28;20495;-64
2021/04/25 00:03:39;;;;;;;0.40;0.20;;;;;;;20.89;nan;102045.66;5055324;28;20045;-64
2021/04/25 00:06:05;;;;;;;1.05;0.30;;;;;;;20.96;nan;102046.72;5054740;28;20021;-65
2021/04/25 00:08:31;;;;;;;0.60;0.20;;;;;;;21.02;nan;102046.97;5054831;28;20029;-64
2021/04/25 00:10:57;;;;;;;0.35;0.10;;;;;;;21.07;nan;102043.72;5054930;28;20017;-64
2021/04/25 00:13:22;;;;;;;0.32;0.13;;;;;;;21.13;nan;102048.53;5054525;28;20024;-64
2021/04/25 00:15:49;;;;;;;0.38;0.10;;;;;;;21.16;nan;102053.69;5054925;28;20025;-65
2021/04/25 00:18:14;;;;;;;0.38;0.17;;;;;;;21.17;nan;102049.97;5036744;28;20021;-63
2021/04/25 00:20:39;;;;;;;0.30;0.10;;;;;;;21.19;nan;102047.06;5054784;28;20067;-65
2021/04/25 00:23:05;;;;;;;0.75;0.10;;;;;;;21.18;nan;102046.22;5054576;28;20456;-64
2021/04/25 00:25:30;;;;;;;0.80;0.10;;;;;;;21.23;nan;102049.31;5054506;28;20399;-64
2021/04/25 00:27:55;;;;;;;0.20;0.05;;;;;;;21.26;nan;102053.63;5054594;28;20067;-64
2021/04/25 00:30:21;;;;;;;0.25;0.00;;;;;;;21.29;nan;102047.81;5036374;28;20028;-63
2021/04/25 00:32:48;;;;;;;1.48;0.15;;;;;;;21.30;nan;102041.34;5054604;28;20029;-64
2021/04/25 00:35:15;;;;;;;0.65;0.10;;;;;;;21.29;nan;102040.47;5054295;28;20031;-62
2021/04/25 00:37:40;;;;;;;0.20;0.17;;;;;;;21.35;nan;102046.34;5054392;28;20033;-64
2021/04/25 00:40:08;;;;;;;0.55;0.20;;;;;;;21.36;nan;102042.59;5054329;28;20103;-63
2021/04/25 00:42:34;;;;;;;0.60;0.40;;;;;;;21.36;nan;102042.59;5054205;28;20542;-63
2021/04/25 00:45:03;;;;;;;0.38;0.10;;;;;;;21.37;nan;102041.56;5054396;28;20122;-64
2021/04/25 00:47:28;;;;;;;0.52;0.17;;;;;;;21.40;nan;102043.97;5053873;28;20029;-64
2021/04/25 00:49:53;;;;;;;0.22;0.10;;;;;;;21.34;nan;102037.28;5053973;28;20025;-63
2021/04/25 00:52:19;;;;;;;0.35;0.20;;;;;;;21.36;nan;102032.50;5054009;28;20028;-63
2021/04/25 00:54:45;;;;;;;0.47;0.15;;;;;;;21.38;nan;102035.06;5053416;28;20043;-63
2021/04/25 00:57:14;;;;;;;0.90;0.15;;;;;;;21.38;nan;102030.47;5053477;28;20128;-64
2021/04/25 00:59:41;;;;;;;0.30;0.08;;;;;;;21.39;nan;102034.03;5036180;28;20029;-63
2021/04/25 01:02:06;;;;;;;0.75;0.10;;;;;;;21.43;nan;102040.91;5053915;28;20024;-63
2021/04/25 01:04:33;;;;;;;0.35;0.10;;;;;;;21.42;nan;102037.31;5053817;28;20060;-63
2021/04/25 01:06:58;;;;;;;1.25;0.10;;;;;;;21.43;nan;102032.69;5053924;28;20070;-64
2021/04/25 01:09:23;;;;;;;0.40;0.10;;;;;;;21.42;nan;102037.31;5053448;28;20119;-63
2021/04/25 01:11:49;;;;;;;0.20;0.10;;;;;;;21.40;nan;102024.81;5053861;28;20020;-63
2021/04/25 01:14:15;;;;;;;0.10;0.00;;;;;;;21.44;nan;102031.66;5053581;28;20519;-63
2021/04/25 01:16:40;;;;;;;0.98;0.10;;;;;;;21.44;nan;102034.41;5053685;28;20027;-64
2021/04/25 01:19:05;;;;;;;0.28;0.10;;;;;;;21.45;nan;102038.84;5053528;28;20495;-63
2021/04/25 01:21:30;;;;;;;0.55;0.10;;;;;;;21.44;nan;102034.41;5053514;28;20060;-64
2021/04/25 01:23:56;;;;;;;0.30;0.10;;;;;;;21.44;nan;102028.94;5035694;28;20021;-64
2021/04/25 01:26:21;;;;;;;0.65;0.20;;;;;;;21.42;nan;102026.38;5053282;28;20041;-63
2021/04/25 01:28:46;;;;;;;0.20;0.10;;;;;;;21.44;nan;102023.47;5053414;28;20064;-63
2021/04/25 01:31:12;;;;;;;0.20;0.10;;;;;;;21.45;nan;102027.91;5053115;28;20021;-64
2021/04/25 01:33:37;;;;;;;0.65;0.35;;;;;;;21.44;nan;102026.19;5053582;28;20031;-64
2021/04/25 01:36:03;;;;;;;0.32;0.25;;;;;;;21.41;nan;102019.19;5053323;28;20021;-64
2021/04/25 01:38:29;;;;;;;0.75;0.20;;;;;;;21.45;nan;102019.69;5053062;28;20110;-64
2021/04/25 01:40:54;;;;;;;0.20;0.10;;;;;;;21.43;nan;102019.88;5053858;28;20041;-65
2021/04/25 01:43:20;;;;;;;0.52;0.08;;;;;;;21.43;nan;102019.88;5052943;28;20104;-64
2021/04/25 01:45:45;;;;;;;0.43;0.10;;;;;;;21.43;nan;102016.28;5053122;28;20480;-65
2021/04/25 01:48:10;;;;;;;0.57;0.20;;;;;;;21.44;nan;102018.00;5052986;28;20021;-64
2021/04/25 01:50:37;;;;;;;0.22;0.10;;;;;;;21.45;nan;102014.22;5052900;28;20226;-65
2021/04/25 01:53:04;;;;;;;0.52;0.10;;;;;;;21.44;nan;102007.91;5053011;28;20070;-63
2021/04/25 01:55:31;;;;;;;0.30;0.10;;;;;;;21.44;nan;102009.78;5052572;28;20040;-64
2021/04/25 01:57:59;;;;;;;0.00;0.00;;;;;;;21.43;nan;102013.53;5052975;28;20514;-64
2021/04/25 02:00:30;;;;;;;0.22;0.00;;;;;;;21.40;nan;102001.06;5052563;28;20025;-64
2021/04/25 02:02:55;;;;;;;0.43;0.20;;;;;;;21.45;nan;102016.97;5052919;28;20032;-64
2021/04/25 02:05:22;;;;;;;0.40;0.10;;;;;;;21.43;nan;102010.81;5052567;28;20025;-64
2021/04/25 02:07:47;;;;;;;0.98;0.13;;;;;;;21.42;nan;102004.47;5052578;28;20028;-64
2021/04/25 02:10:13;;;;;;;0.55;0.13;;;;;;;21.38;nan;102000.38;5052517;28;20028;-64
2021/04/25 02:12:38;;;;;;;0.47;0.10;;;;;;;21.44;nan;102009.78;5034768;28;20051;-63
2021/04/25 02:15:07;;;;;;;0.50;0.10;;;;;;;21.42;nan;102004.47;5052563;28;20021;-63
2021/04/25 02:17:32;;;;;;;0.43;0.10;;;;;;;21.42;nan;101998.16;5052534;28;20032;-64
2021/04/25 02:19:58;;;;;;;0.35;0.20;;;;;;;21.43;nan;101999.88;5052627;28;20021;-64
2021/04/25 02:22:23;;;;;;;0.40;0.10;;;;;;;21.43;nan;101999.88;5052312;28;20074;-64
2021/04/25 02:24:49;;;;;;;0.60;0.20;;;;;;;21.44;nan;102001.56;5052558;28;20025;-65
2021/04/25 02:27:14;;;;;;;1.00;0.40;;;;;;;21.45;nan;102001.41;5052228;28;20020;-64
2021/04/25 02:29:39;;;;;;;0.10;0.10;;;;;;;21.46;nan;102002.25;5052345;28;20047;-64
2021/04/25 02:32:05;;;;;;;1.20;0.17;;;;;;;21.47;nan;101995.78;5052367;28;20024;-64
2021/04/25 02:34:31;;;;;;;0.98;0.10;;;;;;;21.42;nan;101992.69;5052273;28;20060;-64
2021/04/25 02:36:57;;;;;;;0.32;0.13;;;;;;;21.45;nan;101998.66;5052383;28;20112;-64
2021/04/25 02:39:22;;;;;;;0.45;0.17;;;;;;;21.45;nan;101995.09;5052063;28;20111;-64
2021/04/25 02:41:47;;;;;;;0.35;0.20;;;;;;;21.44;nan;101979.69;5052426;28;20107;-65
2021/04/25 02:44:12;;;;;;;0.30;0.15;;;;;;;21.44;nan;101987.91;5052193;28;20379;-64
2021/04/25 02:46:38;;;;;;;0.40;0.20;;;;;;;21.45;nan;101993.19;5052225;28;20028;-63
2021/04/25 02:49:03;;;;;;;0.38;0.10;;;;;;;21.45;nan;101995.09;5034378;28;20028;-64
2021/04/25 02:51:28;;;;;;;0.38;0.15;;;;;;;21.47;nan;102001.25;5052297;28;20485;-63
2021/04/25 02:53:54;;;;;;;0.10;0.10;;;;;;;21.46;nan;102002.25;5052229;28;20372;-63
2021/04/25 02:56:19;;;;;;;0.05;0.05;;;;;;;21.44;nan;101991.50;5051759;28;20045;-64
2021/04/25 02:58:44;;;;;;;0.20;0.10;;;;;;;21.45;nan;101992.34;5034333;28;20115;-63
2021/04/25 03:01:09;;;;;;;0.20;0.03;;;;;;;21.47;nan;101995.78;5052030;28;20017;-64
2021/04/25 03:03:35;;;;;;;0.22;0.10;;;;;;;21.45;nan;101997.81;5051968;28;20480;-64
2021/04/25 03:06:00;;;;;;;0.55;0.10;;;;;;;21.46;nan;101999.53;5052145;28;20028;-63
2021/04/25 03:08:25;;;;;;;0.20;0.10;;;;;;;21.40;nan;101989.25;5051796;28;20020;-64
2021/04/25 03:10:51;;;;;;;1.27;0.10;;;;;;;21.45;nan;101998.66;5052054;28;20480;-63
2021/04/25 03:13:16;;;;;;;0.10;0.10;;;;;;;21.44;nan;101996.09;5051770;28;20028;-64
2021/04/25 03:15:42;;;;;;;0.10;0.10;;;;;;;21.41;nan;101996.44;5051993;28;20025;-63
2021/04/25 03:18:07;;;;;;;0.73;0.10;;;;;;;21.44;nan;102005.16;5052103;28;20389;-63
2021/04/25 03:20:33;;;;;;;0.10;0.00;;;;;;;21.45;nan;102008.75;5055780;28;20028;-64
2021/04/25 03:22:58;;;;;;;0.47;0.20;;;;;;;21.46;nan;102013.22;5055990;28;20021;-63
2021/04/25 03:25:23;;;;;;;0.45;0.10;;;;;;;21.44;nan;102015.25;5037507;28;20068;-65
2021/04/25 03:27:49;;;;;;;1.35;0.28;;;;;;;21.45;nan;102008.75;5055813;28;20031;-64
2021/04/25 03:30:16;;;;;;;0.30;0.17;;;;;;;21.47;nan;102006.72;5055480;28;20021;-63
2021/04/25 03:32:42;;;;;;;0.32;0.20;;;;;;;21.44;nan;102007.03;5055701;28;20084;-63
2021/04/25 03:35:09;;;;;;;0.43;0.10;;;;;;;21.44;nan;102009.78;5055181;28;20429;-64
2021/04/25 03:37:36;;;;;;;0.80;0.17;;;;;;;21.44;nan;102013.38;5055376;28;20033;-63
2021/04/25 03:40:03;;;;;;;0.68;0.20;;;;;;;21.46;nan;102010.47;5037700;28;20032;-63
2021/04/25 03:42:28;;;;;;;0.55;0.20;;;;;;;21.43;nan;102013.53;5055039;28;20502;-63
2021/04/25 03:44:53;;;;;;;0.15;0.10;;;;;;;21.45;nan;102020.56;5055350;28;20066;-63
2021/04/25 03:47:18;;;;;;;0.70;0.20;;;;;;;21.44;nan;102015.25;5055149;28;20021;-63
2021/04/25 03:49:44;;;;;;;0.55;0.10;;;;;;;21.45;nan;102014.22;5055345;28;20024;-64
2021/04/25 03:52:09;;;;;;;0.68;0.20;;;;;;;21.44;nan;102009.78;5055289;28;20021;-64
2021/04/25 03:54:36;;;;;;;0.43;0.13;;;;;;;21.44;nan;102018.00;5055195;28;20391;-64
2021/04/25 03:57:01;;;;;;;1.55;0.20;;;;;;;21.45;nan;102015.09;5055172;28;20053;-64
2021/04/25 03:59:27;;;;;;;0.30;0.10;;;;;;;21.46;nan;102011.31;5037575;28;20071;-64
2021/04/25 04:01:53;;;;;;;0.20;0.10;;;;;;;22.18;nan;102012.63;5055163;28;20025;-65
2021/04/25 04:04:19;;;;;;;0.38;0.15;;;;;;;23.07;nan;102008.19;5037011;28;20388;-63
2021/04/25 04:06:44;;;;;;;0.30;0.10;;;;;;;23.24;nan;102004.38;5054806;28;20021;-63
2021/04/25 04:09:09;;;;;;;0.10;0.10;;;;;;;23.10;nan;102008.69;5054866;28;20538;-64
2021/04/25 04:11:34;;;;;;;1.05;0.10;;;;;;;22.64;nan;102017.63;5054775;28;20033;-64
2021/04/25 04:14:00;;;;;;;0.73;0.20;;;;;;;22.52;nan;102015.25;5054990;28;20066;-64
2021/04/25 04:16:26;;;;;;;0.30;0.10;;;;;;;22.47;nan;102006.66;5054673;28;20047;-64
2021/04/25 04:18:51;;;;;;;0.40;0.10;;;;;;;22.48;nan;102011.09;5054924;28;20376;-65
2021/04/25 04:21:17;;;;;;;0.20;0.08;;;;;;;22.57;nan;102014.72;5054582;28;20100;-64
2021/04/25 04:23:42;;;;;;;0.47;0.30;;;;;;;22.56;nan;102009.41;5054720;28;20029;-64
2021/04/25 04:26:07;;;;;;;0.73;0.20;;;;;;;22.57;nan;102016.59;5054626;28;20029;-64
2021/04/25 04:28:33;;;;;;;0.20;0.10;;;;;;;22.55;nan;102015.91;5054739;28;20029;-65
2021/04/25 04:30:58;;;;;;;0.80;0.03;;;;;;;22.61;nan;102009.75;5054469;28;20354;-65
2021/04/25 04:33:23;;;;;;;0.50;0.10;;;;;;;22.52;nan;102009.75;5054250;28;20087;-63
2021/04/25 04:35:49;;;;;;;0.65;0.20;;;;;;;22.60;nan;102008.03;5054551;28;20028;-64
2021/04/25 04:38:14;;;;;;;1.38;0.28;;;;;;;22.64;nan;102002.03;5054326;28;20024;-64
2021/04/25 04:40:39;;;;;;;0.75;0.10;;;;;;;22.64;nan;102012.13;5054458;28;20021;-64
2021/04/25 04:43:04;;;;;;;1.23;0.50;;;;;;;22.66;nan;102004.59;5054275;28;20086;-64
2021/04/25 04:45:30;;;;;;;0.30;0.10;;;;;;;22.67;nan;102007.16;5054731;28;20032;-64
2021/04/25 04:47:55;;;;;;;0.68;0.15;;;;;;;22.72;nan;102006.66;5054112;28;20464;-63
2021/04/25 04:50:20;;;;;;;0.75;0.25;;;;;;;22.73;nan;102011.13;5053987;28;20021;-64
2021/04/25 04:52:47;;;;;;;0.35;0.10;;;;;;;22.73;nan;102005.63;5054219;28;20056;-64
2021/04/25 04:55:16;;;;;;;0.47;0.28;;;;;;;22.58;nan;102002.72;5053705;28;20029;-64
2021/04/25 04:57:42;;;;;;;0.70;0.10;;;;;;;22.83;nan;102006.31;5054104;28;20028;-63
2021/04/25 05:00:09;;;;;;;0.60;0.20;;;;;;;22.83;nan;102000.84;5053940;28;20112;-64
2021/04/25 05:02:34;;;;;;;0.50;0.10;;;;;;;22.81;nan;102008.34;5054159;28;20399;-64
2021/04/25 05:05:00;;;;;;;0.40;0.08;;;;;;;22.79;nan;102003.03;5052718;28;20021;-64
2021/04/25 05:07:25;;;;;;;0.17;0.03;;;;;;;22.88;nan;102003.09;5053895;28;20029;-64
2021/04/25 05:09:50;;;;;;;0.40;0.10;;;;;;;22.84;nan;102001.69;5053813;28;20021;-64
2021/04/25 05:12:16;;;;;;;0.47;0.10;;;;;;;22.81;nan;102002.88;5053580;28;20027;-63
2021/04/25 05:14:41;;;;;;;0.47;0.20;;;;;;;22.58;nan;101996.38;5054135;28;20032;-64
2021/04/25 05:17:07;;;;;;;0.38;0.20;;;;;;;22.60;nan;102006.16;5053591;28;20071;-63
2021/04/25 05:19:32;;;;;;;0.63;0.15;;;;;;;22.58;nan;102002.72;5053567;28;20025;-63
2021/04/25 05:21:57;;;;;;;0.20;0.10;;;;;;;22.65;nan;101998.25;5053723;28;20418;-64
2021/04/25 05:24:23;;;;;;;0.82;0.10;;;;;;;22.95;nan;102004.94;5053616;28;20021;-63
2021/04/25 05:26:49;;;;;;;0.50;0.30;;;;;;;22.71;nan;101999.47;5053588;28;20020;-64
2021/04/25 05:29:14;;;;;;;0.57;0.13;;;;;;;22.87;nan;102006.84;5053192;28;20443;-63
2021/04/25 05:31:40;;;;;;;0.60;0.20;;;;;;;22.98;nan;102001.84;5053995;28;20029;-64
2021/04/25 05:34:06;;;;;;;0.45;0.10;;;;;;;23.05;nan;102000.13;5053415;28;20049;-64
2021/04/25 05:36:31;;;;;;;0.52;0.32;;;;;;;22.91;nan;101995.34;5053285;28;20056;-64
2021/04/25 05:38:56;;;;;;;0.20;0.08;;;;;;;22.99;nan;101984.34;5053389;28;20035;-64
2021/04/25 05:41:21;;;;;;;0.88;0.20;;;;;;;22.86;nan;102002.41;5052493;28;20039;-64
2021/04/25 05:43:47;;;;;;;0.17;0.15;;;;;;;22.83;nan;102000.84;5053268;28;20452;-63
2021/04/25 05:46:14;;;;;;;0.65;0.13;;;;;;;22.93;nan;101997.94;5053104;28;20052;-63
2021/04/25 05:48:40;;;;;;;0.25;0.10;;;;;;;22.95;nan;102004.94;5035526;28;20024;-64
2021/04/25 05:51:05;;;;;;;0.70;0.15;;;;;;;22.97;nan;102000.13;5052951;28;20028;-64
2021/04/25 05:53:31;;;;;;;0.30;0.10;;;;;;;23.01;nan;102004.28;5052961;28;20033;-63
2021/04/25 05:55:56;;;;;;;0.38;0.20;;;;;;;22.93;nan;101996.03;5052889;28;20047;-64
2021/04/25 05:58:21;;;;;;;1.25;0.10;;;;;;;22.78;nan;102003.22;5053043;28;20692;-63
2021/04/25 06:00:47;;;;;;;0.57;0.10;;;;;;;22.88;nan;102014.91;5052881;28;20044;-63
2021/04/25 06:03:12;;;;;;;0.22;0.10;;;;;;;22.78;nan;101997.75;5052965;28;20036;-64
2021/04/25 06:05:37;;;;;;;0.20;0.08;;;;;;;22.80;nan;102001.16;5053095;28;20056;-63
2021/04/25 06:08:03;;;;;;;1.20;0.20;;;;;;;22.89;nan;102005.66;5052825;28;20025;-63
2021/04/25 06:10:29;;;;;;;1.30;0.50;;;;;;;22.73;nan;102000.16;5052531;28;20491;-64
2021/04/25 06:12:54;;;;;;;0.40;0.10;;;;;;;22.89;nan;102008.38;5052783;28;20112;-64
2021/04/25 06:15:21;;;;;;;0.20;0.10;;;;;;;22.83;nan;101999.97;5052439;28;20048;-65
2021/04/25 06:17:47;;;;;;;0.10;0.00;;;;;;;22.88;nan;102001.19;5052727;28;20468;-65
2021/04/25 06:20:13;;;;;;;1.17;0.20;;;;;;;22.99;nan;101998.06;5052459;28;20059;-64
2021/04/25 06:22:40;;;;;;;0.00;0.00;;;;;;;22.97;nan;102013.00;5052585;28;20021;-64
2021/04/25 06:25:07;;;;;;;0.77;0.08;;;;;;;22.89;nan;101994.69;5052726;28;20029;-63
2021/04/25 06:27:32;;;;;;;0.20;0.10;;;;;;;22.94;nan;102011.47;5052301;28;20029;-63
2021/04/25 06:29:57;;;;;;;0.20;0.10;;;;;;;23.00;nan;102013.50;5052439;28;20025;-63
2021/04/25 06:32:23;;;;;;;0.93;0.30;;;;;;;22.93;nan;102011.63;5052233;28;20484;-63
2021/04/25 06:34:48;;;;;;;0.30;0.10;;;;;;;22.78;nan;102011.44;5034508;28;20021;-64
2021/04/25 06:37:14;;;;;;;1.00;0.30;;;;;;;22.96;nan;102016.78;5052205;28;20044;-63
2021/04/25 06:39:39;;;;;;;0.40;0.20;;;;;;;22.96;nan;102019.50;5052346;28;20376;-64
2021/04/25 06:42:05;;;;;;;0.28;0.10;;;;;;;22.83;nan;102011.81;5052303;28;20380;-63
2021/04/25 06:44:30;;;;;;;0.30;0.10;;;;;;;22.81;nan;101992.75;5052221;28;20404;-63
2021/04/25 06:46:55;;;;;;;1.52;0.20;;;;;;;22.90;nan;101995.53;5034346;28;20032;-63
2021/04/25 06:49:22;;;;;;;0.55;0.10;;;;;;;22.85;nan;101998.81;5051936;28;20029;-64
2021/04/25 06:51:48;;;;;;;0.63;0.10;;;;;;;22.99;nan;102005.44;5034698;28;20522;-63
2021/04/25 06:54:13;;;;;;;0.40;0.10;;;;;;;22.94;nan;101997.75;5054195;28;20108;-63
2021/04/25 06:56:38;;;;;;;1.08;0.25;;;;;;;23.03;nan;101988.50;5056022;28;20085;-63
2021/04/25 06:59:05;;;;;;;0.50;0.30;;;;;;;23.02;nan;101984.03;5056271;28;20025;-63
2021/04/25 07:01:30;;;;;;;0.30;0.10;;;;;;;23.00;nan;101991.56;5056114;28;20472;-64
2021/04/25 07:03:55;;;;;;;0.82;0.40;;;;;;;22.98;nan;102007.34;5056305;28;20040;-63
2021/04/25 07:06:21;;;;;;;0.65;0.20;;;;;;;22.89;nan;102008.38;5056008;28;20055;-64
2021/04/25 07:08:47;;;;;;;0.88;0.10;;;;;;;23.09;nan;102000.63;5056188;28;20021;-63
2021/04/25 07:11:12;;;;;;;0.60;0.15;;;;;;;22.98;nan;101996.38;5055849;28;20033;-64
2021/04/25 07:13:38;;;;;;;0.63;0.13;;;;;;;23.06;nan;101996.38;5037995;28;20384;-63
2021/04/25 07:16:03;;;;;;;0.10;0.03;;;;;;;22.87;nan;101996.75;5056061;28;20016;-63
2021/04/25 07:18:29;;;;;;;1.02;0.20;;;;;;;23.18;nan;101979.50;5055672;28;20025;-63
2021/04/25 07:20:55;;;;;;;0.52;0.10;;;;;;;23.22;nan;101983.63;5055997;28;20057;-64
2021/04/25 07:23:22;;;;;;;1.45;0.20;;;;;;;22.91;nan;101989.88;5055930;28;20066;-64
2021/04/25 07:25:47;;;;;;;0.20;0.10;;;;;;;22.88;nan;102001.19;5055911;28;20461;-64
2021/04/25 07:28:13;;;;;;;0.95;0.22;;;;;;;22.96;nan;102006.66;5055672;28;20052;-63
2021/04/25 07:30:38;;;;;;;1.35;0.25;;;;;;;22.94;nan;102003.22;5055629;28;20278;-64
2021/04/25 07:33:03;;;;;;;0.38;0.00;;;;;;;22.89;nan;102005.66;5055764;28;20349;-63
2021/04/25 07:35:29;;;;;;;0.10;0.10;;;;;;;22.93;nan;102001.53;5055422;28;20033;-63
2021/04/25 07:37:54;;;;;;;0.52;0.10;;;;;;;22.93;nan;102012.50;5055731;28;20032;-64
2021/04/25 07:40:19;;;;;;;0.68;0.25;;;;;;;22.84;nan;102007.19;5055406;28;20120;-63
2021/04/25 07:42:45;;;;;;;0.52;0.10;;;;;;;22.90;nan;101988.16;5055399;28;20053;-63
2021/04/25 07:45:15;;;;;;;0.38;0.22;;;;;;;22.93;nan;102011.63;5055149;28;20021;-64
2021/04/25 07:47:42;;;;;;;0.60;0.20;;;;;;;22.89;nan;102005.66;5055738;28;20029;-63
2021/04/25 07:50:08;;;;;;;0.30;0.25;;;;;;;22.94;nan;102008.72;5055266;28;20029;-64
2021/04/25 07:52:34;;;;;;;0.45;0.10;;;;;;;22.88;nan;102003.09;5055318;28;20227;-63
2021/04/25 07:55:00;;;;;;;0.40;0.13;;;;;;;22.95;nan;102004.94;5044806;22;20021;-63
2021/04/25 07:57:26;;;;;;;0.30;0.10;;;;;;;23.00;nan;102002.53;5052808;28;20037;-63
2021/04/25 07:59:52;;;;;;;0.20;0.10;;;;;;;22.92;nan;102005.28;5054015;28;20024;-63
2021/04/25 08:02:20;;;;;;;0.95;0.40;;;;;;;22.93;nan;102004.25;5053561;28;20025;-63
2021/04/25 08:04:45;;;;;;;1.25;0.20;;;;;;;22.79;nan;101994.81;5054679;28;20032;-63
2021/04/25 08:07:10;;;;;;;0.45;0.10;;;;;;;23.00;nan;102007.16;5054774;28;20376;-63
2021/04/25 08:09:36;;;;;;;0.75;0.38;;;;;;;22.99;nan;102010.94;5053955;28;20025;-63
2021/04/25 08:12:03;;;;;;;0.43;0.15;;;;;;;23.14;nan;102009.19;5055043;28;20468;-64
2021/04/25 08:14:28;;;;;;;0.30;0.10;;;;;;;23.04;nan;102008.53;5054777;28;20166;-62
2021/04/25 08:16:53;;;;;;;0.35;0.13;;;;;;;22.98;nan;102014.72;5054990;28;20108;-62
2021/04/25 08:19:18;;;;;;;0.60;0.20;;;;;;;22.91;nan;102009.06;5054565;28;20380;-65
2021/04/25 08:21:44;;;;;;;0.57;0.20;;;;;;;22.91;nan;102020.03;5054887;28;20115;-63
2021/04/25 08:24:09;;;;;;;0.30;0.10;;;;;;;22.97;nan;102019.34;5054682;28;20491;-63
2021/04/25 08:26:35;;;;;;;0.30;0.20;;;;;;;22.99;nan;102022.75;5054665;28;20028;-63
2021/04/25 08:29:00;;;;;;;0.40;0.10;;;;;;;22.94;nan;102025.16;5041113;28;20100;-64
2021/04/25 08:31:27;;;;;;;0.35;0.10;;;;;;;22.94;nan;102033.41;5034330;28;20033;-64
2021/04/25 08:33:52;;;;;;;0.88;0.20;;;;;;;22.83;nan;102014.53;5034732;28;20437;-63
2021/04/25 08:36:17;;;;;;;0.20;0.10;;;;;;;22.92;nan;102027.22;5034646;28;20084;-63
2021/04/25 08:38:43;;;;;;;0.30;0.20;;;;;;;22.92;nan;102038.19;5034627;28;20113;-63
2021/04/25 08:41:13;;;;;;;0.40;0.13;;;;;;;22.87;nan;102040.63;5034436;28;20373;-63
2021/04/25 08:43:41;;;;;;;0.40;0.00;;;;;;;22.92;nan;102040.09;5034411;28;20025;-64
2021/04/25 08:46:07;;;;;;;0.70;0.17;;;;;;;22.93;nan;102045.41;5034407;28;20021;-63
2021/04/25 08:48:35;;;;;;;0.20;0.20;;;;;;;22.93;nan;102045.41;5046239;28;20024;-63
2021/04/25 08:51:00;;;;;;;1.25;0.10;;;;;;;22.90;nan;102043.00;5074268;28;20059;-63
2021/04/25 08:53:26;;;;;;;0.80;0.15;;;;;;;23.13;nan;102045.03;5073937;28;20037;-63
2021/04/25 08:55:51;;;;;;;0.80;0.10;;;;;;;22.86;nan;102041.66;5074057;28;20090;-63
2021/04/25 08:58:18;;;;;;;0.40;0.17;;;;;;;22.94;nan;102044.38;5073981;28;20035;-63
2021/04/25 09:00:44;;;;;;;0.73;0.15;;;;;;;22.93;nan;102042.66;5074122;28;20452;-63
2021/04/25 09:03:09;;;;;;;0.35;0.10;;;;;;;22.99;nan;102032.88;5073954;28;20118;-62
2021/04/25 09:05:35;;;;;;;0.50;0.17;;;;;;;22.90;nan;102029.31;5073920;28;20111;-64
2021/04/25 09:08:02;;;;;;;0.95;0.20;;;;;;;22.96;nan;102034.06;5074016;28;20025;-63
2021/04/25 09:10:34;;;;;;;0.35;0.20;;;;;;;22.92;nan;102031.88;5073619;28;20035;-63
2021/04/25 09:13:00;;;;;;;0.30;0.10;;;;;;;23.05;nan;102052.25;5073931;28;20061;-63
2021/04/25 09:15:28;;;;;;;0.10;0.00;;;;;;;23.08;nan;102049.16;5073252;28;20487;-64
2021/04/25 09:17:58;;;;;;;0.47;0.10;;;;;;;22.99;nan;102050.19;5073240;28;20051;-63
2021/04/25 09:20:47;;;;;;;0.82;0.20;;;;;;;23.05;nan;102048.66;5073550;28;20028;-63
2021/04/25 09:23:22;;;;;;;0.10;0.10;;;;;;;23.04;nan;102045.06;5073522;28;20025;-63
2021/04/25 09:25:55;;;;;;;0.40;0.10;;;;;;;23.00;nan;102034.56;5073625;28;20099;-63
2021/04/25 09:28:21;;;;;;;0.45;0.10;;;;;;;22.96;nan;102052.41;5065064;28;20017;-64
2021/04/25 09:31:08;;;;;;;0.88;0.35;;;;;;;22.99;nan;102047.44;5053505;28;20345;-62
2021/04/25 09:33:58;;;;;;;1.02;0.10;;;;;;;22.93;nan;102059.09;5053397;28;20035;-62
2021/04/25 09:36:27;;;;;;;0.40;0.10;;;;;;;23.00;nan;102051.88;5053215;28;20128;-63
2021/04/25 09:38:54;;;;;;;0.95;0.28;;;;;;;22.94;nan;102046.25;5053422;28;20029;-64
2021/04/25 09:41:28;;;;;;;0.63;0.15;;;;;;;23.05;nan;102048.66;5053087;28;20017;-63
2021/04/25 09:43:53;;;;;;;0.52;0.10;;;;;;;22.95;nan;102062.53;5053372;28;20032;-63
2021/04/25 09:46:18;;;;;;;0.47;0.10;;;;;;;23.04;nan;102055.16;5053058;28;20372;-62
2021/04/25 09:48:44;;;;;;;0.47;0.20;;;;;;;23.18;nan;102048.09;5053167;28;20029;-63
2021/04/25 09:51:23;;;;;;;0.25;0.20;;;;;;;23.08;nan;102057.38;5052978;28;20020;-63
2021/04/25 09:53:48;;;;;;;0.20;0.10;;;;;;;22.97;nan;102055.00;5051899;28;20028;-63
2021/04/25 09:56:13;;;;;;;0.63;0.10;;;;;;;23.00;nan;102054.63;5052766;28;20049;-63
2021/04/25 09:58:57;;;;;;;0.20;0.10;;;;;;;23.14;nan;102065.94;5052961;28;20756;-63
2021/04/25 10:01:25;;;;;;;1.20;0.10;;;;;;;22.99;nan;102063.88;5052655;28;20023;-64
2021/04/25 10:03:51;;;;;;;0.73;0.28;;;;;;;22.91;nan;102065.81;5053005;28;20074;-64
2021/04/25 10:06:18;;;;;;;0.52;0.13;;;;;;;22.95;nan;102068.00;5052718;28;20028;-63
2021/04/25 10:08:45;;;;;;;0.47;0.10;;;;;;;23.10;nan;102085.50;5052809;28;20063;-64
2021/04/25 10:11:10;;;;;;;0.50;0.28;;;;;;;23.20;nan;102070.75;5052583;28;20032;-64
2021/04/25 10:13:39;;;;;;;0.77;0.22;;;;;;;23.11;nan;102078.13;5052714;28;20376;-63
2021/04/25 10:16:04;;;;;;;0.93;0.20;;;;;;;22.97;nan;102079.66;5051684;28;20384;-63
2021/04/25 10:18:29;;;;;;;0.50;0.13;;;;;;;23.17;nan;102090.28;5052539;28;20021;-64
2021/04/25 10:20:56;;;;;;;0.57;0.22;;;;;;;23.08;nan;102071.09;5052695;28;20395;-63
2021/04/25 10:23:23;;;;;;;0.20;0.10;;;;;;;23.16;nan;102066.63;5052359;28;20024;-63
2021/04/25 10:25:49;;;;;;;0.70;0.10;;;;;;;22.98;nan;102075.91;5052557;28;20036;-64
2021/04/25 10:28:26;;;;;;;0.93;0.20;;;;;;;23.00;nan;102079.31;5044973;28;20029;-63
2021/04/25 10:31:02;;;;;;;0.50;0.08;;;;;;;23.10;nan;102071.78;5032570;28;20017;-64
2021/04/25 10:33:52;;;;;;;0.60;0.20;;;;;;;23.01;nan;102067.34;5032523;28;20029;-63
2021/04/25 10:36:18;;;;;;;0.65;0.28;;;;;;;22.94;nan;102069.03;5032282;28;20071;-63
2021/04/25 10:38:44;;;;;;;1.45;0.10;;;;;;;23.01;nan;102070.09;5032496;28;20028;-64
2021/04/25 10:41:26;;;;;;;0.95;0.20;;;;;;;23.08;nan;102087.56;5032334;28;20101;-63
2021/04/25 10:43:56;;;;;;;0.60;0.20;;;;;;;22.98;nan;102072.28;5031200;28;20021;-64
2021/04/25 10:46:21;;;;;;;0.93;0.30;;;;;;;23.00;nan;102064.75;5032196;28;20025;-63
2021/04/25 10:48:49;;;;;;;1.10;0.40;;;;;;;23.01;nan;102080.19;5032486;28;20035;-63
2021/04/25 10:51:15;;;;;;;0.77;0.20;;;;;;;22.99;nan;102066.63;5032088;28;20030;-63
2021/04/25 10:53:43;;;;;;;0.75;0.20;;;;;;;23.16;nan;102074.84;5032349;28;20095;-63
2021/04/25 10:56:11;;;;;;;0.43;0.13;;;;;;;22.99;nan;102076.75;5032051;28;20139;-62
2021/04/25 10:58:37;;;;;;;1.45;0.35;;;;;;;23.02;nan;102081.91;5049395;28;20025;-63
2021/04/25 11:01:02;;;;;;;0.65;0.10;;;;;;;23.06;nan;102075.91;5052268;28;20037;-64
2021/04/25 11:03:27;;;;;;;1.10;0.10;;;;;;;23.05;nan;102071.44;5051924;28;20032;-64
2021/04/25 11:05:53;;;;;;;1.07;0.27;;;;;;;23.05;nan;102081.56;5052277;28;20064;-64
2021/04/25 11:08:30;;;;;;;0.60;0.10;;;;;;;23.04;nan;102085.34;5051909;28;20268;-64
2021/04/25 11:10:59;;;;;;;0.55;0.20;;;;;;;22.96;nan;102088.06;5052099;28;20017;-64
2021/04/25 11:13:46;;;;;;;0.55;0.28;;;;;;;22.96;nan;102088.94;5051800;28;20055;-63
2021/04/25 11:16:15;;;;;;;0.40;0.10;;;;;;;22.95;nan;102081.72;5052099;28;20025;-64
2021/04/25 11:18:48;;;;;;;0.40;0.13;;;;;;;22.93;nan;102083.78;5052061;28;20049;-63
2021/04/25 11:21:34;;;;;;;0.45;0.10;;;;;;;23.15;nan;102087.72;5051827;28;20018;-64
2021/04/25 11:24:22;;;;;;;0.40;0.17;;;;;;;22.94;nan;102074.53;5052083;28;20020;-64
2021/04/25 11:26:50;;;;;;;0.95;0.30;;;;;;;23.02;nan;102082.78;5051991;28;20024;-64
2021/04/25 11:29:25;;;;;;;1.50;0.20;;;;;;;22.92;nan;102082.09;5036099;28;20036;-63
2021/04/25 11:31:53;;;;;;;0.88;0.20;;;;;;;22.87;nan;102084.50;5032026;28;20026;-64
2021/04/25 11:34:24;;;;;;;0.57;0.10;;;;;;;23.03;nan;102081.75;5031731;28;20106;-63
2021/04/25 11:36:51;;;;;;;0.60;0.20;;;;;;;23.10;nan;102066.28;5032012;28;20021;-65
2021/04/25 11:39:18;;;;;;;0.28;0.00;;;;;;;23.00;nan;102076.56;5032087;28;20030;-63